createdAt,value
2022-08-04T00:02:18.915Z,126.05
2022-08-04T00:05:01.302Z,123.53
2022-08-04T00:07:44.991Z,131.00
2022-08-04T00:10:17.386Z,133.93
2022-08-04T00:12:48.659Z,135.55
2022-08-04T00:15:17.176Z,123.97
2022-08-04T00:18:19.592Z,138.80
2022-08-04T00:20:46.799Z,130.98
2022-08-04T00:23:15.035Z,123.05
2022-08-04T00:25:42.267Z,140.68
2022-08-04T00:28:10.226Z,128.50
2022-08-04T00:30:37.779Z,142.85
2022-08-04T00:33:04.918Z,138.68
2022-08-04T00:35:33.657Z,138.75
2022-08-04T00:38:03.483Z,120.32
2022-08-04T00:40:36.888Z,141.65
2022-08-04T00:43:10.398Z,137.20
2022-08-04T00:46:15.743Z,134.88
2022-08-04T00:48:33.586Z,130.35
2022-08-04T00:51:16.238Z,132.00
2022-08-04T00:54:05.761Z,117.13
2022-08-04T00:57:29.887Z,125.00
2022-08-04T01:00:14.655Z,114.97
2022-08-04T01:03:02.946Z,119.50
2022-08-04T01:05:37.939Z,117.70
2022-08-04T01:08:41.101Z,130.70
2022-08-04T01:11:56.255Z,117.53
2022-08-04T01:14:48.625Z,105.28
2022-08-04T01:17:28.710Z,116.07
2022-08-04T01:20:10.048Z,110.75
2022-08-04T01:23:08.788Z,118.82
2022-08-04T01:26:42.680Z,113.05
2022-08-04T01:29:09.750Z,109.25
2022-08-04T01:32:00.723Z,113.50
2022-08-04T01:34:31.528Z,111.75
2022-08-04T01:37:15.851Z,121.13
2022-08-04T01:39:52.296Z,113.25
2022-08-04T01:42:31.921Z,123.65
2022-08-04T01:45:06.260Z,116.53
2022-08-04T01:47:36.448Z,114.63
2022-08-04T01:50:10.081Z,120.13
2022-08-04T01:52:40.094Z,108.00
2022-08-04T01:55:10.359Z,115.00
2022-08-04T01:57:47.243Z,110.70
2022-08-04T02:00:22.989Z,117.47
2022-08-04T02:02:51.678Z,113.03
2022-08-04T02:05:21.542Z,121.22
2022-08-04T02:08:03.385Z,103.07
2022-08-04T02:10:50.443Z,112.80
2022-08-04T02:13:32.136Z,108.32
2022-08-04T02:16:13.857Z,93.00
2022-08-04T02:19:14.818Z,109.57
2022-08-04T02:21:44.763Z,100.80
2022-08-04T02:24:18.843Z,106.40
2022-08-04T02:26:53.614Z,96.32
2022-08-04T02:29:36.004Z,103.20
2022-08-04T02:32:14.253Z,101.57
2022-08-04T02:35:05.658Z,91.95
2022-08-04T02:37:33.505Z,87.72
2022-08-04T02:40:03.966Z,102.32
2022-08-04T02:45:00.856Z,66.28
2022-08-04T02:48:29.656Z,90.22
2022-08-04T02:50:29.068Z,96.35
2022-08-04T02:53:00.461Z,98.80
2022-08-04T02:55:29.985Z,83.40
2022-08-04T02:57:58.951Z,110.67
2022-08-04T03:00:26.664Z,92.07
2022-08-04T03:02:59.598Z,97.32
2022-08-04T03:05:54.142Z,87.43
2022-08-04T03:08:39.184Z,99.30
2022-08-04T03:11:16.968Z,96.38
2022-08-04T03:14:27.867Z,97.22
2022-08-04T03:17:25.916Z,74.20
2022-08-04T03:19:53.004Z,86.80
2022-08-04T03:23:11.717Z,87.80
2022-08-04T03:26:08.483Z,72.85
2022-08-04T03:29:14.092Z,75.35
2022-08-04T03:32:38.151Z,66.70
2022-08-04T03:35:34.549Z,76.95
2022-08-04T03:38:19.966Z,91.07
2022-08-04T03:40:59.287Z,87.13
2022-08-04T03:43:58.279Z,87.40
2022-08-04T03:46:44.211Z,74.13
2022-08-04T03:49:40.380Z,88.85
2022-08-04T03:53:10.468Z,79.45
2022-08-04T03:56:28.119Z,66.93
2022-08-04T03:59:06.820Z,76.22
2022-08-04T04:02:02.525Z,79.40
2022-08-04T04:04:41.469Z,89.05
2022-08-04T04:07:36.383Z,90.72
2022-08-04T04:10:21.466Z,79.75
2022-08-04T04:13:12.553Z,81.90
2022-08-04T04:16:07.447Z,84.53
2022-08-04T04:19:00.735Z,82.88
2022-08-04T04:21:48.562Z,86.10
2022-08-04T04:24:43.021Z,91.55
2022-08-04T04:27:29.571Z,84.43
2022-08-04T04:30:01.694Z,85.93
2022-08-04T04:32:38.065Z,93.72
2022-08-04T04:35:19.645Z,94.18
2022-08-04T04:37:48.085Z,80.00
2022-08-04T04:40:41.462Z,95.10
2022-08-04T04:43:18.042Z,84.53
2022-08-04T04:46:06.100Z,79.88
2022-08-04T04:48:43.070Z,78.45
2022-08-04T04:51:37.692Z,80.78
2022-08-04T04:54:22.159Z,83.93
2022-08-04T04:57:01.733Z,73.22
2022-08-04T04:59:37.061Z,78.53
2022-08-04T05:02:21.978Z,90.80
2022-08-04T05:05:03.523Z,74.55
2022-08-04T05:07:52.980Z,83.72
2022-08-04T05:10:51.256Z,82.93
2022-08-04T05:14:36.038Z,83.35
2022-08-04T05:16:44.919Z,77.53
2022-08-04T05:19:11.953Z,84.38
2022-08-04T05:21:48.217Z,91.47
2022-08-04T05:24:22.440Z,91.38
2022-08-04T05:26:56.313Z,111.47
2022-08-04T05:29:38.049Z,91.90
2022-08-04T05:32:13.439Z,100.03
2022-08-04T05:34:45.266Z,84.88
2022-08-04T05:37:17.813Z,94.05
2022-08-04T05:39:49.959Z,98.85
2022-08-04T05:42:17.108Z,79.65
2022-08-04T05:44:50.467Z,88.97
2022-08-04T05:47:21.558Z,82.65
2022-08-04T05:49:55.536Z,86.10
2022-08-04T05:52:29.889Z,81.80
2022-08-04T05:54:58.586Z,81.00
2022-08-04T05:57:26.266Z,88.53
2022-08-04T05:59:57.575Z,94.43
2022-08-04T06:02:25.653Z,84.28
2022-08-04T06:04:53.495Z,83.15
2022-08-04T06:07:20.805Z,96.03
2022-08-04T06:09:48.157Z,102.25
2022-08-04T06:12:32.700Z,100.80
2022-08-04T06:15:01.389Z,94.28
2022-08-04T06:18:37.000Z,81.70
2022-08-04T06:20:34.517Z,80.85
2022-08-04T06:23:07.506Z,83.40
2022-08-04T06:25:46.500Z,85.50
2022-08-04T06:28:15.460Z,108.25
2022-08-04T06:30:47.724Z,53.47
2022-08-04T06:33:27.776Z,66.53
2022-08-04T06:35:56.617Z,53.53
2022-08-04T06:38:25.986Z,89.05
2022-08-04T06:40:54.933Z,73.28
2022-08-04T06:43:23.175Z,60.15
2022-08-04T06:45:52.217Z,44.70
2022-08-04T06:48:21.689Z,50.25
2022-08-04T06:51:27.332Z,50.53
2022-08-04T06:53:48.245Z,33.30
2022-08-04T06:56:17.534Z,43.75
2022-08-04T06:58:46.757Z,33.88
2022-08-04T07:01:17.048Z,61.33
2022-08-04T07:03:44.615Z,48.00
2022-08-04T07:06:19.067Z,51.22
2022-08-04T07:08:49.613Z,61.78
2022-08-04T07:13:46.598Z,69.45
2022-08-04T07:16:18.434Z,48.55
2022-08-04T07:18:45.823Z,64.28
2022-08-04T07:21:21.014Z,61.95
2022-08-04T07:23:48.810Z,82.72
2022-08-04T07:26:17.345Z,72.95
2022-08-04T07:28:44.743Z,49.53
2022-08-04T07:31:35.274Z,62.60
2022-08-04T07:34:16.804Z,47.45
2022-08-04T07:36:50.898Z,44.83
2022-08-04T07:39:28.645Z,51.97
2022-08-04T07:41:58.155Z,72.35
2022-08-04T07:44:25.876Z,43.72
2022-08-04T07:46:54.023Z,73.70
2022-08-04T07:49:55.081Z,42.80
2022-08-04T07:52:09.870Z,42.55
2022-08-04T07:54:39.157Z,43.10
2022-08-04T07:57:06.335Z,28.98
2022-08-04T07:59:35.113Z,31.50
2022-08-04T08:02:03.097Z,47.00
2022-08-04T08:04:30.820Z,33.47
2022-08-04T08:06:58.882Z,36.40
2022-08-04T08:09:26.188Z,33.35
2022-08-04T08:12:35.647Z,29.02
2022-08-04T08:14:42.788Z,34.40
2022-08-04T08:17:09.937Z,28.38
2022-08-04T08:19:38.468Z,19.73
2022-08-04T08:22:06.006Z,22.27
2022-08-04T08:24:36.417Z,21.98
2022-08-04T08:27:04.754Z,27.23
2022-08-04T08:29:35.016Z,29.95
2022-08-04T08:32:08.321Z,26.02
2022-08-04T08:34:37.814Z,22.83
2022-08-04T08:37:29.305Z,28.20
2022-08-04T08:40:02.360Z,25.65
2022-08-04T08:42:54.940Z,20.90
2022-08-04T08:45:53.015Z,18.40
2022-08-04T08:50:00.361Z,15.98
2022-08-04T08:52:05.829Z,13.57
2022-08-04T08:54:38.354Z,11.80
2022-08-04T08:57:24.162Z,18.40
2022-08-04T09:00:14.194Z,14.48
2022-08-04T09:02:47.373Z,16.33
2022-08-04T09:05:14.331Z,17.77
2022-08-04T09:08:15.109Z,23.05
2022-08-04T09:10:50.880Z,27.30
2022-08-04T09:13:21.539Z,22.15
2022-08-04T09:15:57.551Z,26.02
2022-08-04T09:18:43.377Z,21.35
2022-08-04T09:21:38.428Z,25.40
2022-08-04T09:24:36.227Z,22.65
2022-08-04T09:27:10.057Z,16.83
2022-08-04T09:29:41.843Z,26.50
2022-08-04T09:32:30.421Z,24.88
2022-08-04T09:35:13.518Z,29.50
2022-08-04T09:38:05.251Z,19.48
2022-08-04T09:40:57.230Z,28.63
2022-08-04T09:43:59.173Z,19.40
2022-08-04T09:46:37.165Z,11.18
2022-08-04T09:49:28.208Z,20.73
2022-08-04T09:52:09.954Z,20.65
2022-08-04T09:54:46.061Z,30.20
2022-08-04T09:57:36.299Z,27.88
2022-08-04T10:00:13.802Z,14.23
2022-08-04T10:02:52.253Z,17.85
2022-08-04T10:05:26.417Z,20.67
2022-08-04T10:08:16.665Z,18.08
2022-08-04T10:11:11.370Z,16.23
2022-08-04T10:14:02.907Z,19.00
2022-08-04T10:16:40.607Z,17.08
2022-08-04T10:19:30.039Z,19.17
2022-08-04T10:22:28.877Z,17.58
2022-08-04T10:26:02.669Z,19.00
2022-08-04T10:28:06.842Z,15.38
2022-08-04T10:30:37.284Z,17.02
2022-08-04T10:33:10.888Z,16.33
2022-08-04T10:36:03.099Z,25.60
2022-08-04T10:38:56.712Z,17.13
2022-08-04T10:41:59.783Z,14.52
2022-08-04T10:44:45.529Z,22.73
2022-08-04T10:47:22.487Z,16.73
2022-08-04T10:50:01.897Z,19.70
2022-08-04T10:52:48.101Z,23.38
2022-08-04T10:55:20.653Z,22.52
2022-08-04T10:58:01.619Z,28.25
2022-08-04T11:00:31.757Z,28.40
2022-08-04T11:03:01.957Z,23.40
2022-08-04T11:08:08.732Z,15.23
2022-08-04T11:10:46.817Z,31.58
2022-08-04T11:13:22.158Z,36.53
2022-08-04T11:16:02.569Z,26.15
2022-08-04T11:18:44.428Z,32.42
2022-08-04T11:21:26.325Z,27.52
2022-08-04T11:24:03.406Z,27.30
2022-08-04T11:26:45.731Z,32.40
2022-08-04T11:29:25.424Z,36.22
2022-08-04T11:31:53.628Z,25.42
2022-08-04T11:34:23.747Z,41.47
2022-08-04T11:37:14.110Z,36.85
2022-08-04T11:39:52.045Z,55.83
2022-08-04T11:42:30.811Z,55.90
2022-08-04T11:45:04.834Z,51.40
2022-08-04T11:47:54.310Z,46.67
2022-08-04T11:50:53.643Z,56.33
2022-08-04T11:53:26.646Z,49.17
2022-08-04T11:56:09.404Z,51.58
2022-08-04T11:58:38.149Z,39.47
2022-08-04T12:01:44.233Z,37.67
2022-08-04T12:04:26.920Z,25.73
2022-08-04T12:07:30.055Z,33.38
2022-08-04T12:10:41.062Z,51.22
2022-08-04T12:13:28.174Z,48.28
2022-08-04T12:15:58.193Z,54.75
2022-08-04T12:18:34.804Z,73.63
2022-08-04T12:21:09.213Z,81.10
2022-08-04T12:23:41.800Z,108.40
2022-08-04T12:26:17.403Z,119.90
2022-08-04T12:31:48.249Z,173.13
2022-08-04T12:34:34.159Z,220.55
2022-08-04T12:37:30.698Z,214.05
2022-08-04T12:40:28.173Z,192.40
2022-08-04T12:43:15.052Z,142.27
2022-08-04T12:45:49.810Z,100.00
2022-08-04T12:48:21.251Z,152.95
2022-08-04T12:50:59.350Z,221.70
2022-08-04T12:53:50.647Z,239.02
2022-08-04T12:56:26.550Z,281.05
2022-08-04T12:59:01.181Z,346.70
2022-08-04T13:02:09.337Z,435.98
2022-08-04T13:04:28.979Z,606.35
2022-08-04T13:09:53.324Z,630.08
2022-08-04T13:12:32.528Z,590.50
2022-08-04T13:15:10.882Z,521.70
2022-08-04T13:18:11.909Z,408.70
2022-08-04T13:20:45.197Z,307.83
2022-08-04T13:23:21.549Z,347.67
2022-08-04T13:26:42.976Z,422.67
2022-08-04T13:28:43.117Z,496.27
2022-08-04T13:31:19.913Z,456.48
2022-08-04T13:33:53.162Z,473.75
2022-08-04T13:36:25.590Z,485.73
2022-08-04T13:38:57.509Z,543.85
2022-08-04T13:41:30.943Z,636.90
2022-08-04T13:44:18.252Z,607.17
2022-08-04T13:47:05.082Z,654.67
2022-08-04T13:49:42.473Z,765.40
2022-08-04T13:52:26.388Z,830.78
2022-08-04T13:54:53.847Z,883.78
2022-08-04T13:57:33.232Z,935.65
2022-08-04T14:00:09.349Z,853.13
2022-08-04T14:03:23.086Z,871.83
2022-08-04T14:06:15.404Z,836.00
2022-08-04T14:08:56.293Z,865.60
2022-08-04T14:12:09.923Z,869.72
2022-08-04T14:14:32.816Z,776.55
2022-08-04T14:17:20.358Z,721.03
2022-08-04T14:19:56.069Z,685.20
2022-08-04T14:22:26.333Z,704.17
2022-08-04T14:25:09.278Z,650.25
2022-08-04T14:27:45.733Z,573.65
2022-08-04T14:34:00.526Z,447.45
2022-08-04T14:36:04.182Z,473.42
2022-08-04T14:38:45.137Z,480.38
2022-08-04T14:41:13.044Z,403.02
2022-08-04T14:43:57.529Z,384.67
2022-08-04T14:46:36.085Z,365.30
2022-08-04T14:49:04.144Z,311.70
2022-08-04T14:51:45.599Z,341.35
2022-08-04T14:54:18.531Z,316.17
2022-08-04T14:56:55.717Z,259.42
2022-08-04T14:59:24.600Z,223.82
2022-08-04T15:02:00.872Z,223.07
2022-08-04T15:04:29.999Z,186.88
2022-08-04T15:06:57.543Z,169.20
2022-08-04T15:09:25.173Z,142.70
2022-08-04T15:11:52.423Z,148.70
2022-08-04T15:14:36.948Z,116.18
2022-08-04T15:17:12.030Z,122.53
2022-08-04T15:19:56.876Z,120.28
2022-08-04T15:22:24.187Z,124.22
2022-08-04T15:24:54.864Z,136.13
2022-08-04T15:27:30.026Z,169.77
2022-08-04T15:30:04.278Z,165.30
2022-08-04T15:32:38.239Z,167.23
2022-08-04T15:35:08.626Z,187.05
2022-08-04T15:38:07.846Z,173.25
2022-08-04T15:40:59.894Z,176.80
2022-08-04T15:43:45.622Z,194.48
2022-08-04T15:46:42.843Z,194.43
2022-08-04T15:49:22.811Z,215.25
2022-08-04T15:52:04.194Z,219.90
2022-08-04T15:54:39.830Z,229.18
2022-08-04T15:57:10.335Z,223.95
2022-08-04T15:59:58.432Z,229.82
2022-08-04T16:02:37.521Z,236.32
2022-08-04T16:05:18.636Z,203.80
2022-08-04T16:08:08.507Z,233.70
2022-08-04T16:10:36.668Z,222.25
2022-08-04T16:13:20.371Z,248.38
2022-08-04T16:15:55.512Z,231.60
2022-08-04T16:18:28.854Z,255.07
2022-08-04T16:21:02.494Z,223.60
2022-08-04T16:24:15.297Z,225.73
2022-08-04T16:26:56.848Z,219.55
2022-08-04T16:29:28.075Z,224.60
2022-08-04T16:32:11.865Z,231.85
2022-08-04T16:34:49.956Z,249.43
2022-08-04T16:37:21.694Z,228.07
2022-08-04T16:39:50.820Z,255.82
2022-08-04T16:42:32.325Z,240.95
2022-08-04T16:45:19.774Z,239.23
2022-08-04T16:47:49.610Z,216.43
2022-08-04T16:50:18.407Z,237.52
2022-08-04T16:52:51.036Z,224.13
2022-08-04T16:55:27.069Z,233.95
2022-08-04T16:57:58.943Z,236.35
2022-08-04T17:00:31.484Z,256.50
2022-08-04T17:03:01.510Z,272.23
2022-08-04T17:05:39.045Z,228.98
2022-08-04T17:10:56.378Z,270.33
2022-08-04T17:14:04.635Z,270.58
2022-08-04T17:16:21.627Z,268.42
2022-08-04T17:18:51.646Z,277.90
2022-08-04T17:21:28.175Z,254.23
2022-08-04T17:24:14.884Z,229.40
2022-08-04T17:26:53.602Z,214.00
2022-08-04T17:29:42.812Z,244.80
2022-08-04T17:32:15.311Z,218.85
2022-08-04T17:34:46.175Z,193.80
2022-08-04T17:40:11.463Z,199.25
2022-08-04T17:42:40.275Z,217.40
2022-08-04T17:48:09.608Z,196.13
2022-08-04T17:50:36.969Z,200.10
2022-08-04T17:53:12.974Z,178.27
2022-08-04T17:55:43.295Z,200.77
2022-08-04T17:58:20.966Z,130.77
2022-08-04T18:01:23.193Z,134.25
2022-08-04T18:03:52.907Z,123.40
2022-08-04T18:06:23.048Z,134.73
2022-08-04T18:08:58.134Z,133.37
2022-08-04T18:11:29.636Z,203.93
2022-08-04T18:14:10.540Z,174.00
2022-08-04T18:16:44.796Z,190.65
2022-08-04T18:19:15.326Z,211.63
2022-08-04T18:21:45.976Z,225.50
2022-08-04T18:24:35.359Z,179.77
2022-08-04T18:27:21.869Z,122.47
2022-08-04T18:30:14.467Z,244.23
2022-08-04T18:32:36.984Z,156.13
2022-08-04T18:35:18.722Z,176.77
2022-08-04T18:38:06.434Z,178.93
2022-08-04T18:40:53.209Z,178.25
2022-08-04T18:43:28.048Z,171.27
2022-08-04T18:45:59.524Z,132.48
2022-08-04T18:48:36.961Z,133.90
2022-08-04T18:51:22.789Z,174.85
2022-08-04T18:53:55.203Z,134.20
2022-08-04T18:56:32.431Z,139.50
2022-08-04T18:59:04.754Z,155.75
2022-08-04T19:02:13.610Z,168.13
2022-08-04T19:04:33.407Z,157.20
2022-08-04T19:08:02.584Z,167.75
2022-08-04T19:09:57.343Z,165.07
2022-08-04T19:12:26.882Z,155.95
2022-08-04T19:14:58.853Z,174.18
2022-08-04T19:17:53.905Z,182.88
2022-08-04T19:20:25.688Z,212.85
2022-08-04T19:24:27.957Z,164.00
2022-08-04T19:26:02.263Z,175.30
2022-08-04T19:28:34.060Z,201.15
2022-08-04T19:31:07.410Z,201.65
2022-08-04T19:33:59.507Z,212.95
2022-08-04T19:36:27.978Z,198.65
2022-08-04T19:38:59.124Z,191.60
2022-08-04T19:41:27.297Z,222.38
2022-08-04T19:43:54.811Z,172.10
2022-08-04T19:50:02.896Z,199.70
2022-08-04T19:51:56.874Z,189.55
2022-08-04T19:54:27.348Z,209.02
2022-08-04T19:56:54.707Z,220.70
2022-08-04T19:59:22.786Z,218.23
2022-08-04T20:01:50.283Z,208.35
2022-08-04T20:04:17.535Z,149.15
2022-08-04T20:06:44.675Z,193.93
2022-08-04T20:09:26.534Z,214.85
2022-08-04T20:11:58.140Z,195.30
2022-08-04T20:14:32.525Z,210.15
2022-08-04T20:17:10.067Z,202.68
2022-08-04T20:19:38.849Z,214.57
2022-08-04T20:22:08.646Z,198.10
2022-08-04T20:25:01.089Z,189.70
2022-08-04T20:27:59.333Z,204.65
2022-08-04T20:30:28.499Z,179.00
2022-08-04T20:32:56.639Z,182.68
2022-08-04T20:35:27.054Z,202.55
2022-08-04T20:38:00.322Z,158.38
2022-08-04T20:40:29.190Z,172.35
2022-08-04T20:43:00.350Z,173.25
2022-08-04T20:45:57.093Z,161.23
2022-08-04T20:48:15.213Z,167.40
2022-08-04T20:50:46.095Z,174.25
2022-08-04T20:53:16.576Z,158.73
2022-08-04T20:55:54.708Z,152.82
2022-08-04T20:58:27.399Z,209.40
2022-08-04T21:00:55.659Z,187.52
2022-08-04T21:03:49.840Z,157.18
2022-08-04T21:06:10.297Z,165.25
2022-08-04T21:08:37.587Z,142.85
2022-08-04T21:11:06.946Z,134.23
2022-08-04T21:13:50.667Z,161.10
2022-08-04T21:16:53.768Z,145.90
2022-08-04T21:19:13.082Z,160.98
2022-08-04T21:21:42.382Z,140.93
2022-08-04T21:24:10.187Z,152.48
2022-08-04T21:26:42.837Z,133.88
2022-08-04T21:29:14.523Z,137.38
2022-08-04T21:31:51.053Z,129.23
2022-08-04T21:34:39.091Z,130.68
2022-08-04T21:37:09.354Z,144.35
2022-08-04T21:42:39.045Z,129.40
2022-08-04T21:45:10.125Z,154.15
2022-08-04T21:47:46.784Z,139.27
2022-08-04T21:50:19.969Z,177.20
2022-08-04T21:52:49.188Z,150.05
2022-08-04T21:55:17.203Z,150.55
2022-08-04T21:57:46.255Z,142.80
2022-08-04T22:03:03.853Z,144.88
2022-08-04T22:05:32.774Z,153.48
2022-08-04T22:08:00.030Z,144.70
2022-08-04T22:18:41.059Z,145.98
2022-08-04T22:21:09.614Z,143.23
2022-08-04T22:23:45.173Z,144.85
2022-08-04T22:26:14.490Z,148.00
2022-08-04T22:28:49.328Z,134.77
2022-08-04T22:31:24.005Z,144.30
2022-08-04T22:33:54.648Z,150.52
2022-08-04T22:36:24.789Z,176.63
2022-08-04T22:39:04.472Z,9.70
2022-08-04T22:41:48.699Z,4.55
2022-08-04T22:44:21.922Z,6.18
2022-08-04T22:46:50.976Z,3.10
2022-08-04T22:49:18.044Z,5.55
2022-08-04T22:51:52.165Z,6.97
2022-08-04T22:54:19.225Z,6.03
2022-08-04T22:56:46.488Z,52.55
2022-08-04T22:59:14.115Z,56.55
2022-08-04T23:01:59.102Z,39.25
2022-08-04T23:04:31.490Z,52.20
2022-08-04T23:07:00.655Z,57.83
2022-08-04T23:09:50.061Z,46.05
2022-08-04T23:12:27.310Z,49.35
2022-08-04T23:14:56.583Z,47.45
2022-08-04T23:17:25.231Z,59.40
2022-08-04T23:19:58.678Z,52.60
2022-08-04T23:22:37.439Z,44.80
2022-08-04T23:25:16.358Z,42.00
2022-08-04T23:27:51.650Z,59.03
2022-08-04T23:30:24.384Z,63.55
2022-08-04T23:32:56.463Z,48.40
2022-08-04T23:35:24.018Z,84.82
2022-08-04T23:37:56.805Z,94.35
2022-08-04T23:40:32.371Z,73.65
2022-08-04T23:43:01.934Z,84.60
2022-08-04T23:46:08.318Z,101.38
2022-08-04T23:48:20.842Z,68.70
2022-08-04T23:50:48.681Z,103.22
2022-08-04T23:53:18.312Z,94.55
2022-08-04T23:55:45.913Z,98.68
2022-08-04T23:58:18.651Z,128.50
